createdAt,value
2019-03-19T00:02:09.385Z,3.00
2019-03-19T00:04:39.559Z,3.00
2019-03-19T00:07:09.162Z,3.00
2019-03-19T00:09:39.980Z,3.10
2019-03-19T00:12:11.162Z,3.10
2019-03-19T00:14:40.811Z,3.00
2019-03-19T00:17:10.982Z,2.90
2019-03-19T00:19:40.984Z,2.80
2019-03-19T00:22:11.260Z,2.90
2019-03-19T00:24:40.867Z,3.10
2019-03-19T00:27:13.688Z,3.20
2019-03-19T00:29:45.765Z,3.20
2019-03-19T00:32:16.107Z,3.30
2019-03-19T00:34:45.524Z,3.40
2019-03-19T00:37:15.481Z,3.40
2019-03-19T00:39:46.403Z,3.40
2019-03-19T00:42:17.864Z,3.40
2019-03-19T00:44:49.684Z,3.30
2019-03-19T00:47:21.441Z,3.20
2019-03-19T00:49:51.582Z,3.10
2019-03-19T00:52:22.203Z,3.00
2019-03-19T00:54:53.162Z,2.90
2019-03-19T00:57:24.503Z,2.80
2019-03-19T00:59:54.544Z,2.80
2019-03-19T01:02:24.942Z,2.80
2019-03-19T01:04:55.221Z,2.70
2019-03-19T01:07:26.921Z,2.70
2019-03-19T01:09:56.663Z,2.70
2019-03-19T01:12:27.141Z,2.70
2019-03-19T01:14:58.761Z,2.70
2019-03-19T01:17:28.202Z,2.60
2019-03-19T01:19:57.982Z,2.50
2019-03-19T01:22:27.590Z,2.50
2019-03-19T01:24:57.243Z,2.50
2019-03-19T01:27:27.662Z,2.40
2019-03-19T01:29:57.744Z,2.40
2019-03-19T01:32:27.246Z,2.40
2019-03-19T01:34:56.821Z,2.40
2019-03-19T01:37:26.639Z,2.40
2019-03-19T01:39:56.118Z,2.40
2019-03-19T01:42:25.639Z,2.50
2019-03-19T01:44:56.298Z,2.50
2019-03-19T01:47:26.398Z,2.60
2019-03-19T01:49:56.839Z,2.70
2019-03-19T01:52:26.918Z,2.70
2019-03-19T01:54:57.338Z,2.70
2019-03-19T01:57:27.319Z,2.70
2019-03-19T01:59:57.238Z,2.70
2019-03-19T02:02:28.438Z,2.60
2019-03-19T02:04:58.598Z,2.50
2019-03-19T02:07:28.539Z,2.50
2019-03-19T02:09:58.459Z,2.50
2019-03-19T02:12:30.400Z,2.40
2019-03-19T02:15:01.138Z,2.40
2019-03-19T02:17:31.659Z,2.40
2019-03-19T02:20:02.238Z,2.40
2019-03-19T02:22:33.317Z,2.20
2019-03-19T02:25:03.339Z,2.20
2019-03-19T02:27:33.518Z,2.20
2019-03-19T02:30:03.701Z,2.20
2019-03-19T02:32:33.620Z,2.20
2019-03-19T02:35:03.440Z,2.20
2019-03-19T02:37:34.920Z,2.30
2019-03-19T02:40:08.622Z,2.30
2019-03-19T02:42:38.527Z,2.30
2019-03-19T02:45:11.381Z,2.30
2019-03-19T02:47:42.498Z,2.30
2019-03-19T02:50:15.445Z,2.30
2019-03-19T02:52:45.778Z,2.30
2019-03-19T02:55:15.587Z,2.20
2019-03-19T02:57:46.302Z,2.10
2019-03-19T03:00:22.178Z,2.10
2019-03-19T03:02:52.004Z,2.00
2019-03-19T03:05:22.622Z,2.00
2019-03-19T03:07:52.595Z,2.00
2019-03-19T03:10:23.509Z,1.90
2019-03-19T03:12:58.925Z,1.90
2019-03-19T03:15:28.856Z,2.00
2019-03-19T03:17:59.065Z,2.00
2019-03-19T03:20:29.207Z,2.10
2019-03-19T03:22:58.686Z,2.10
2019-03-19T03:25:29.282Z,2.20
2019-03-19T03:28:00.000Z,2.20
2019-03-19T03:30:30.943Z,2.20
2019-03-19T03:33:01.125Z,2.10
2019-03-19T03:35:31.319Z,2.00
2019-03-19T03:38:02.162Z,1.90
2019-03-19T03:40:32.501Z,1.90
2019-03-19T03:43:03.021Z,1.80
2019-03-19T03:45:32.879Z,1.80
2019-03-19T03:48:03.159Z,1.80
2019-03-19T03:50:33.338Z,1.80
2019-03-19T03:53:05.685Z,1.90
2019-03-19T03:55:35.361Z,2.00
2019-03-19T03:58:05.339Z,2.10
2019-03-19T04:00:36.481Z,2.10
2019-03-19T04:03:06.018Z,2.10
2019-03-19T04:05:36.338Z,2.10
2019-03-19T04:08:06.480Z,2.20
2019-03-19T04:10:36.662Z,2.20
2019-03-19T04:13:06.880Z,2.10
2019-03-19T04:15:36.573Z,2.00
2019-03-19T04:18:06.733Z,1.90
2019-03-19T04:20:36.760Z,1.90
2019-03-19T04:23:06.946Z,1.90
2019-03-19T04:25:36.303Z,2.00
2019-03-19T04:28:05.749Z,2.00
2019-03-19T04:30:35.325Z,2.10
2019-03-19T04:33:05.185Z,2.20
2019-03-19T04:35:34.829Z,2.20
2019-03-19T04:38:04.440Z,2.30
2019-03-19T04:40:34.138Z,2.30
2019-03-19T04:43:03.811Z,2.40
2019-03-19T04:45:33.098Z,2.50
2019-03-19T04:48:03.703Z,2.50
2019-03-19T04:50:33.379Z,2.60
2019-03-19T04:53:04.471Z,2.60
2019-03-19T04:55:33.718Z,2.60
2019-03-19T04:58:03.762Z,2.60
2019-03-19T05:00:34.184Z,2.60
2019-03-19T05:03:04.028Z,2.60
2019-03-19T05:05:33.483Z,2.60
2019-03-19T05:08:03.152Z,2.60
2019-03-19T05:10:32.563Z,2.50
2019-03-19T05:13:04.079Z,2.30
2019-03-19T05:15:34.680Z,2.20
2019-03-19T05:18:04.499Z,2.10
2019-03-19T05:20:33.818Z,2.00
2019-03-19T05:23:03.127Z,2.00
2019-03-19T05:25:33.705Z,1.90
2019-03-19T05:28:04.423Z,1.90
2019-03-19T05:30:34.379Z,1.90
2019-03-19T05:33:03.838Z,1.90
2019-03-19T05:35:33.398Z,1.90
2019-03-19T05:38:02.866Z,1.90
2019-03-19T05:40:32.398Z,1.90
2019-03-19T05:43:01.798Z,1.90
2019-03-19T05:45:31.797Z,1.90
2019-03-19T05:48:01.186Z,1.90
2019-03-19T05:50:31.398Z,1.80
2019-03-19T05:53:01.780Z,1.90
2019-03-19T05:55:31.738Z,1.90
2019-03-19T05:58:01.598Z,1.90
2019-03-19T06:00:33.263Z,2.00
2019-03-19T06:03:04.043Z,2.00
2019-03-19T06:05:34.322Z,2.00
2019-03-19T06:08:05.962Z,2.00
2019-03-19T06:10:38.782Z,2.00
2019-03-19T06:13:12.502Z,2.10
2019-03-19T06:15:45.987Z,2.00
2019-03-19T06:18:34.168Z,2.00
2019-03-19T06:20:55.903Z,2.00
2019-03-19T06:23:25.464Z,2.00
2019-03-19T06:25:54.874Z,2.00
2019-03-19T06:28:25.759Z,2.00
2019-03-19T06:30:55.542Z,2.10
2019-03-19T06:33:25.381Z,2.10
2019-03-19T06:35:55.163Z,2.10
2019-03-19T06:38:25.223Z,2.30
2019-03-19T06:40:55.977Z,2.30
2019-03-19T06:43:25.422Z,2.30
2019-03-19T06:45:54.942Z,2.30
2019-03-19T06:48:28.582Z,2.40
2019-03-19T06:50:58.860Z,2.40
2019-03-19T06:53:28.660Z,2.40
2019-03-19T06:55:58.598Z,2.60
2019-03-19T06:58:29.318Z,2.70
2019-03-19T07:00:59.286Z,2.70
2019-03-19T07:03:29.346Z,2.70
2019-03-19T07:06:08.181Z,2.70
2019-03-19T07:08:38.458Z,2.70
2019-03-19T07:11:08.918Z,2.80
2019-03-19T07:13:38.702Z,2.90
2019-03-19T07:16:09.560Z,3.00
2019-03-19T07:18:39.120Z,3.10
2019-03-19T07:21:09.194Z,3.20
2019-03-19T07:23:39.218Z,3.20
2019-03-19T07:26:12.178Z,3.30
2019-03-19T07:28:42.081Z,3.30
2019-03-19T07:31:11.660Z,3.40
2019-03-19T07:33:41.277Z,3.50
2019-03-19T07:36:11.550Z,3.60
2019-03-19T07:38:40.959Z,3.70
2019-03-19T07:41:10.979Z,3.70
2019-03-19T07:43:40.758Z,3.80
2019-03-19T07:46:10.236Z,3.90
2019-03-19T07:48:40.840Z,4.00
2019-03-19T07:51:10.539Z,4.10
2019-03-19T07:53:40.443Z,4.20
2019-03-19T07:56:10.259Z,4.30
2019-03-19T18:46:10.197Z,3.60
2019-03-19T18:48:40.774Z,3.50
2019-03-19T18:51:11.314Z,3.50
2019-03-19T18:53:44.275Z,3.60
2019-03-19T18:56:14.915Z,3.60
2019-03-19T18:58:47.535Z,3.70
2019-03-19T19:01:21.582Z,3.70
2019-03-19T19:03:53.123Z,3.70
2019-03-19T19:06:23.287Z,3.70
2019-03-19T19:08:54.694Z,3.70
2019-03-19T19:11:27.580Z,3.60
2019-03-19T19:13:57.799Z,3.60
2019-03-19T19:16:29.399Z,3.60
2019-03-19T19:19:06.299Z,3.60
2019-03-19T19:21:37.998Z,3.60
2019-03-19T19:24:10.418Z,3.60
2019-03-19T19:26:42.198Z,3.70
2019-03-19T19:29:15.298Z,3.70
2019-03-19T19:31:48.518Z,3.70
2019-03-19T19:34:24.778Z,3.60
2019-03-19T19:36:57.576Z,3.50
2019-03-19T19:39:29.223Z,3.40
2019-03-19T19:42:02.617Z,3.40
2019-03-19T19:44:34.637Z,3.50
2019-03-19T19:47:07.661Z,3.50
2019-03-19T19:49:40.176Z,3.50
2019-03-19T19:52:14.935Z,3.50
2019-03-19T19:54:45.014Z,3.40
2019-03-19T19:57:19.336Z,3.40
2019-03-19T19:59:54.275Z,3.40
2019-03-19T20:02:29.905Z,3.40
2019-03-19T20:05:03.837Z,3.40
2019-03-19T20:07:37.342Z,3.40
2019-03-19T20:10:16.618Z,3.40
2019-03-19T20:12:48.502Z,3.50
2019-03-19T20:15:18.358Z,3.50
2019-03-19T20:17:51.723Z,3.50
2019-03-19T20:20:27.527Z,3.40
2019-03-19T20:22:59.058Z,3.40
2019-03-19T20:25:30.763Z,3.40
2019-03-19T20:28:02.091Z,3.30
2019-03-19T20:30:37.861Z,3.30
2019-03-19T20:33:09.447Z,3.30
2019-03-19T20:35:41.120Z,3.30
2019-03-19T20:38:10.916Z,3.40
2019-03-19T20:40:46.199Z,3.30
2019-03-19T20:43:17.075Z,3.30
2019-03-19T20:45:49.037Z,3.30
2019-03-19T20:48:20.225Z,3.30
2019-03-19T20:50:53.735Z,3.40
2019-03-19T20:53:24.597Z,3.50
2019-03-19T20:55:56.896Z,3.50
2019-03-19T20:58:43.098Z,3.40
2019-03-19T21:01:06.730Z,3.50
2019-03-19T21:03:54.621Z,3.40
2019-03-19T21:06:27.782Z,3.40
2019-03-19T21:09:00.003Z,3.40
2019-03-19T21:11:31.422Z,3.40
2019-03-19T21:14:04.012Z,3.40
2019-03-19T21:16:36.183Z,3.40
2019-03-19T21:19:08.043Z,3.30
2019-03-19T21:21:40.229Z,3.30
2019-03-19T21:24:11.463Z,3.30
2019-03-19T21:26:42.062Z,3.30
2019-03-19T21:29:12.603Z,3.40
2019-03-19T21:31:42.718Z,3.40
2019-03-19T21:34:16.636Z,3.30
2019-03-19T21:36:46.289Z,3.30
2019-03-19T21:39:17.136Z,3.40
2019-03-19T21:41:47.496Z,3.30
2019-03-19T21:44:18.036Z,3.20
2019-03-19T21:46:49.315Z,3.20
2019-03-19T21:49:20.736Z,3.20
2019-03-19T21:51:50.475Z,3.20
2019-03-19T21:54:21.940Z,3.30
2019-03-19T21:56:51.796Z,3.40
2019-03-19T21:59:21.555Z,3.50
2019-03-19T22:01:51.379Z,3.50
2019-03-19T22:04:21.039Z,3.50
2019-03-19T22:06:51.056Z,3.40
2019-03-19T22:09:20.923Z,3.40
2019-03-19T22:11:50.795Z,3.40
2019-03-19T22:14:21.198Z,3.30
2019-03-19T22:16:51.177Z,3.40
2019-03-19T22:19:20.676Z,3.40
2019-03-19T22:21:50.318Z,3.60
2019-03-19T22:24:19.796Z,3.70
2019-03-19T22:26:49.686Z,3.70
2019-03-19T22:29:20.976Z,3.60
2019-03-19T22:31:51.395Z,3.60
2019-03-19T22:34:21.315Z,3.50
2019-03-19T22:36:50.856Z,3.50
2019-03-19T22:39:20.555Z,3.50
2019-03-19T22:41:50.538Z,3.60
2019-03-19T22:44:26.196Z,3.60
2019-03-19T22:46:56.257Z,3.60
2019-03-19T22:49:26.576Z,3.50
2019-03-19T22:51:56.337Z,3.50
2019-03-19T22:54:26.203Z,3.50
2019-03-19T22:56:55.918Z,3.50
2019-03-19T22:59:25.375Z,3.50
2019-03-19T23:01:54.841Z,3.50
2019-03-19T23:04:27.499Z,3.60
2019-03-19T23:06:56.488Z,3.60
2019-03-19T23:09:26.462Z,3.60
2019-03-19T23:11:56.383Z,3.60
2019-03-19T23:14:27.221Z,3.60
2019-03-19T23:16:57.221Z,3.60
2019-03-19T23:19:28.947Z,3.60
2019-03-19T23:22:02.341Z,3.60
2019-03-19T23:24:31.642Z,3.60
2019-03-19T23:27:03.160Z,3.60
2019-03-19T23:29:34.443Z,3.60
2019-03-19T23:32:04.721Z,3.60
2019-03-19T23:34:38.686Z,3.50
2019-03-19T23:37:06.540Z,3.50
2019-03-19T23:39:38.549Z,3.50
2019-03-19T23:42:08.903Z,3.40
2019-03-19T23:44:39.380Z,3.40
2019-03-19T23:47:09.082Z,3.40
2019-03-19T23:49:39.480Z,3.40
2019-03-19T23:52:09.521Z,3.40
2019-03-19T23:54:39.240Z,3.50
2019-03-19T23:57:10.281Z,3.50
2019-03-19T23:59:40.121Z,3.60
